createdAt,value
2018-03-15T00:00:23.538Z,86.11
2018-03-15T00:01:23.403Z,85.93
2018-03-15T00:02:23.320Z,85.93
2018-03-15T00:03:23.238Z,85.93
2018-03-15T00:04:23.155Z,86.21
2018-03-15T00:05:23.073Z,85.93
2018-03-15T00:06:23.042Z,86.68
2018-03-15T00:07:22.970Z,86.40
2018-03-15T00:08:22.822Z,86.21
2018-03-15T00:09:22.739Z,86.78
2018-03-15T00:10:22.677Z,86.59
2018-03-15T00:11:22.634Z,87.06
2018-03-15T00:12:22.547Z,86.11
2018-03-15T00:13:22.409Z,86.11
2018-03-15T00:14:22.322Z,86.49
2018-03-15T00:15:22.240Z,86.59
2018-03-15T00:16:22.222Z,86.02
2018-03-15T00:17:22.070Z,86.64
2018-03-15T00:18:21.987Z,86.26
2018-03-15T00:19:21.904Z,86.74
2018-03-15T00:20:21.822Z,86.83
2018-03-15T00:21:21.738Z,86.74
2018-03-15T00:22:21.653Z,86.93
2018-03-15T00:23:21.569Z,86.64
2018-03-15T00:24:21.488Z,87.12
2018-03-15T00:25:21.431Z,87.02
2018-03-15T00:26:21.324Z,87.12
2018-03-15T00:27:21.237Z,87.12
2018-03-15T00:28:21.152Z,87.30
2018-03-15T00:29:21.105Z,87.77
2018-03-15T00:30:20.990Z,87.68
2018-03-15T00:31:20.902Z,87.77
2018-03-15T00:32:20.822Z,87.87
2018-03-15T00:33:20.734Z,87.97
2018-03-15T00:34:20.651Z,88.54
2018-03-15T00:35:20.565Z,88.54
2018-03-15T00:36:20.487Z,87.49
2018-03-15T00:37:20.398Z,87.77
2018-03-15T00:38:20.318Z,87.87
2018-03-15T00:39:20.233Z,87.77
2018-03-15T00:40:20.149Z,87.87
2018-03-15T00:41:20.068Z,87.59
2018-03-15T00:42:19.984Z,87.59
2018-03-15T00:43:19.897Z,87.30
2018-03-15T00:44:19.811Z,87.49
2018-03-15T00:45:19.727Z,87.87
2018-03-15T00:46:19.648Z,87.59
2018-03-15T00:47:19.564Z,87.77
2018-03-15T00:48:19.481Z,87.49
2018-03-15T00:49:19.393Z,88.44
2018-03-15T00:50:19.313Z,88.35
2018-03-15T00:51:19.229Z,88.82
2018-03-15T00:52:19.143Z,88.73
2018-03-15T00:53:19.059Z,88.63
2018-03-15T00:54:18.975Z,88.92
2018-03-15T00:55:18.894Z,88.54
2018-03-15T00:56:18.810Z,88.73
2018-03-15T00:57:18.735Z,88.63
2018-03-15T00:58:18.640Z,88.63
2018-03-15T00:59:18.556Z,89.15
2018-03-15T01:00:18.475Z,89.39
2018-03-15T01:01:18.401Z,89.34
2018-03-15T01:02:18.303Z,89.67
2018-03-15T01:03:18.221Z,89.44
2018-03-15T01:04:18.137Z,89.44
2018-03-15T01:05:18.058Z,89.34
2018-03-15T01:06:17.968Z,89.34
2018-03-15T01:07:17.887Z,89.67
2018-03-15T01:08:17.801Z,89.06
2018-03-15T01:09:17.718Z,89.06
2018-03-15T01:10:17.636Z,89.15
2018-03-15T01:11:17.567Z,88.87
2018-03-15T01:12:17.467Z,89.25
2018-03-15T01:13:17.381Z,88.96
2018-03-15T01:14:17.313Z,89.53
2018-03-15T01:15:17.210Z,89.44
2018-03-15T01:16:17.127Z,89.72
2018-03-15T01:17:17.041Z,89.63
2018-03-15T01:18:16.961Z,89.91
2018-03-15T01:19:16.876Z,89.53
2018-03-15T01:20:16.793Z,89.53
2018-03-15T01:21:16.705Z,89.25
2018-03-15T01:22:16.621Z,88.87
2018-03-15T01:23:16.542Z,89.06
2018-03-15T01:24:16.455Z,89.15
2018-03-15T01:25:16.368Z,89.34
2018-03-15T01:26:16.284Z,89.53
2018-03-15T01:27:16.201Z,89.82
2018-03-15T01:28:16.117Z,89.44
2018-03-15T01:29:16.033Z,89.25
2018-03-15T01:30:15.949Z,89.53
2018-03-15T01:31:15.864Z,89.53
2018-03-15T01:32:15.780Z,88.87
2018-03-15T01:33:15.697Z,89.06
2018-03-15T01:34:15.611Z,88.68
2018-03-15T01:35:15.528Z,89.34
2018-03-15T01:36:15.443Z,89.44
2018-03-15T01:37:15.357Z,89.44
2018-03-15T01:38:15.274Z,89.53
2018-03-15T01:39:15.189Z,89.44
2018-03-15T01:40:15.109Z,89.44
2018-03-15T01:41:15.041Z,89.72
2018-03-15T01:42:14.936Z,89.34
2018-03-15T01:43:14.853Z,89.44
2018-03-15T01:44:14.767Z,89.82
2018-03-15T01:45:14.687Z,89.82
2018-03-15T01:46:14.598Z,89.25
2018-03-15T01:47:14.515Z,90.29
2018-03-15T01:48:14.429Z,90.01
2018-03-15T01:49:14.344Z,89.91
2018-03-15T01:50:14.261Z,89.91
2018-03-15T01:51:14.177Z,90.20
2018-03-15T01:52:14.098Z,90.20
2018-03-15T01:53:14.007Z,89.91
2018-03-15T01:54:13.924Z,89.63
2018-03-15T01:55:13.840Z,89.53
2018-03-15T01:56:13.754Z,89.82
2018-03-15T01:57:13.666Z,90.10
2018-03-15T01:58:13.587Z,90.10
2018-03-15T01:59:13.502Z,89.91
2018-03-15T02:00:13.418Z,90.39
2018-03-15T02:01:13.331Z,90.20
2018-03-15T02:02:13.245Z,90.29
2018-03-15T02:03:13.163Z,90.01
2018-03-15T02:04:13.079Z,90.39
2018-03-15T02:05:13.014Z,90.20
2018-03-15T02:06:12.907Z,89.91
2018-03-15T02:07:12.823Z,90.20
2018-03-15T02:08:12.738Z,90.01
2018-03-15T02:09:12.667Z,89.63
2018-03-15T02:10:12.571Z,89.34
2018-03-15T02:11:12.497Z,89.63
2018-03-15T02:12:12.405Z,90.39
2018-03-15T02:13:12.316Z,89.72
2018-03-15T02:14:12.229Z,89.44
2018-03-15T02:15:12.146Z,90.15
2018-03-15T02:16:12.061Z,89.91
2018-03-15T02:17:11.977Z,89.96
2018-03-15T02:18:11.893Z,90.44
2018-03-15T02:19:11.815Z,89.87
2018-03-15T02:20:11.725Z,89.96
2018-03-15T02:21:11.639Z,90.34
2018-03-15T02:22:11.556Z,89.87
2018-03-15T02:23:11.470Z,90.53
2018-03-15T02:24:11.385Z,90.53
2018-03-15T02:25:11.301Z,90.81
2018-03-15T02:26:11.216Z,90.34
2018-03-15T02:27:11.130Z,90.81
2018-03-15T02:28:11.046Z,90.44
2018-03-15T02:29:10.960Z,90.44
2018-03-15T02:30:10.880Z,90.53
2018-03-15T02:31:10.792Z,90.44
2018-03-15T02:32:10.709Z,90.44
2018-03-15T02:33:10.622Z,90.81
2018-03-15T02:34:10.542Z,90.53
2018-03-15T02:35:10.452Z,90.91
2018-03-15T02:36:10.369Z,90.72
2018-03-15T02:37:10.279Z,91.00
2018-03-15T02:38:10.202Z,90.72
2018-03-15T02:39:10.113Z,91.00
2018-03-15T02:40:10.030Z,90.53
2018-03-15T02:41:09.942Z,90.91
2018-03-15T02:42:09.857Z,90.72
2018-03-15T02:43:09.774Z,91.00
2018-03-15T02:44:09.689Z,91.86
2018-03-15T02:45:09.602Z,91.67
2018-03-15T02:46:09.519Z,91.19
2018-03-15T02:47:09.435Z,91.48
2018-03-15T02:48:09.350Z,91.67
2018-03-15T02:49:09.263Z,91.57
2018-03-15T02:50:09.180Z,91.67
2018-03-15T02:51:09.096Z,91.86
2018-03-15T02:52:09.013Z,91.86
2018-03-15T02:53:08.928Z,91.86
2018-03-15T02:54:08.845Z,91.48
2018-03-15T02:55:08.754Z,91.95
2018-03-15T02:56:08.668Z,91.19
2018-03-15T02:57:08.584Z,91.00
2018-03-15T02:58:08.498Z,91.67
2018-03-15T02:59:08.419Z,91.67
2018-03-15T03:00:08.328Z,90.91
2018-03-15T03:01:08.244Z,90.63
2018-03-15T03:02:08.160Z,90.81
2018-03-15T03:03:08.132Z,91.29
2018-03-15T03:04:07.987Z,91.67
2018-03-15T03:05:07.912Z,92.14
2018-03-15T03:06:07.816Z,92.24
2018-03-15T03:07:07.731Z,92.43
2018-03-15T03:08:07.649Z,91.38
2018-03-15T03:09:07.563Z,91.57
2018-03-15T03:10:07.478Z,91.67
2018-03-15T03:11:07.394Z,91.57
2018-03-15T03:12:07.307Z,91.67
2018-03-15T03:13:07.221Z,90.91
2018-03-15T03:14:07.135Z,91.67
2018-03-15T03:15:07.051Z,91.95
2018-03-15T03:16:06.966Z,90.91
2018-03-15T03:17:06.885Z,91.67
2018-03-15T03:18:06.795Z,91.67
2018-03-15T03:19:06.716Z,90.91
2018-03-15T03:20:06.628Z,90.81
2018-03-15T03:21:06.541Z,91.19
2018-03-15T03:22:06.458Z,90.72
2018-03-15T03:23:06.370Z,91.10
2018-03-15T03:24:06.284Z,91.76
2018-03-15T03:25:06.202Z,91.00
2018-03-15T03:26:06.115Z,91.10
2018-03-15T03:27:06.032Z,91.10
2018-03-15T03:28:05.946Z,90.81
2018-03-15T03:29:05.860Z,90.63
2018-03-15T03:30:05.781Z,90.63
2018-03-15T03:31:05.693Z,90.63
2018-03-15T03:32:05.603Z,91.29
2018-03-15T03:33:05.521Z,90.72
2018-03-15T03:34:05.434Z,91.00
2018-03-15T03:35:05.348Z,91.67
2018-03-15T03:36:05.281Z,91.76
2018-03-15T03:37:05.178Z,91.38
2018-03-15T03:38:05.094Z,92.00
2018-03-15T03:39:05.008Z,91.62
2018-03-15T03:40:04.926Z,92.19
2018-03-15T03:41:04.837Z,91.91
2018-03-15T03:42:04.752Z,92.19
2018-03-15T03:43:04.667Z,92.19
2018-03-15T03:44:04.586Z,92.29
2018-03-15T03:45:04.496Z,92.29
2018-03-15T03:46:04.410Z,92.38
2018-03-15T03:47:04.326Z,92.00
2018-03-15T03:48:04.241Z,91.91
2018-03-15T03:49:04.159Z,92.47
2018-03-15T03:50:04.070Z,92.57
2018-03-15T03:51:03.985Z,92.47
2018-03-15T03:52:03.900Z,92.10
2018-03-15T03:53:03.814Z,92.19
2018-03-15T03:54:03.728Z,91.43
2018-03-15T03:55:03.646Z,92.00
2018-03-15T03:56:03.561Z,92.29
2018-03-15T03:57:03.471Z,91.91
2018-03-15T03:58:03.390Z,91.57
2018-03-15T03:59:03.303Z,91.86
2018-03-15T04:00:03.216Z,91.81
2018-03-15T04:01:03.133Z,91.43
2018-03-15T04:02:03.077Z,91.62
2018-03-15T04:03:02.980Z,91.72
2018-03-15T04:04:02.876Z,91.05
2018-03-15T04:05:02.790Z,90.77
2018-03-15T04:06:02.705Z,91.05
2018-03-15T04:07:02.619Z,91.15
2018-03-15T04:08:02.536Z,91.43
2018-03-15T04:09:02.452Z,91.15
2018-03-15T04:10:02.362Z,91.43
2018-03-15T04:11:02.280Z,91.62
2018-03-15T04:12:02.194Z,91.72
2018-03-15T04:13:02.106Z,91.05
2018-03-15T04:14:02.020Z,91.05
2018-03-15T04:15:01.935Z,91.15
2018-03-15T04:16:01.851Z,91.15
2018-03-15T04:17:01.764Z,91.34
2018-03-15T04:18:01.678Z,90.96
2018-03-15T04:19:01.593Z,91.34
2018-03-15T04:20:01.512Z,91.81
2018-03-15T04:21:01.430Z,91.34
2018-03-15T04:22:01.337Z,91.15
2018-03-15T04:23:01.255Z,90.86
2018-03-15T04:24:01.166Z,91.05
2018-03-15T04:25:01.081Z,90.86
2018-03-15T04:26:00.993Z,90.86
2018-03-15T04:27:00.910Z,91.81
2018-03-15T04:28:00.831Z,91.72
2018-03-15T04:29:00.738Z,91.81
2018-03-15T04:30:00.652Z,91.24
2018-03-15T04:31:00.574Z,91.62
2018-03-15T04:32:00.482Z,91.62
2018-03-15T04:33:00.402Z,91.72
2018-03-15T04:34:00.313Z,90.77
2018-03-15T04:35:00.225Z,91.72
2018-03-15T04:36:00.147Z,91.62
2018-03-15T04:37:00.056Z,91.81
2018-03-15T04:37:59.970Z,92.19
2018-03-15T04:38:59.885Z,92.47
2018-03-15T04:39:59.798Z,92.57
2018-03-15T04:40:59.710Z,92.29
2018-03-15T04:41:59.626Z,92.47
2018-03-15T04:42:59.540Z,92.29
2018-03-15T04:43:59.459Z,92.85
2018-03-15T04:44:59.367Z,92.94
2018-03-15T04:45:59.285Z,92.85
2018-03-15T04:46:59.197Z,93.13
2018-03-15T04:47:59.110Z,93.13
2018-03-15T04:48:59.031Z,93.13
2018-03-15T04:49:58.940Z,93.04
2018-03-15T04:50:58.854Z,92.85
2018-03-15T04:51:58.770Z,92.57
2018-03-15T04:52:58.688Z,92.76
2018-03-15T04:53:58.599Z,92.94
2018-03-15T04:54:58.515Z,92.94
2018-03-15T04:55:58.427Z,92.76
2018-03-15T04:56:58.343Z,92.66
2018-03-15T04:57:58.254Z,93.13
2018-03-15T04:58:58.193Z,92.57
2018-03-15T04:59:58.085Z,92.29
2018-03-15T05:00:57.997Z,92.00
2018-03-15T05:01:57.911Z,92.10
2018-03-15T05:02:57.825Z,92.85
2018-03-15T05:03:57.741Z,92.94
2018-03-15T05:04:57.653Z,92.38
2018-03-15T05:05:58.077Z,92.94
2018-03-15T05:06:57.485Z,92.76
2018-03-15T05:07:57.398Z,92.85
2018-03-15T05:08:57.311Z,92.85
2018-03-15T05:09:57.225Z,92.66
2018-03-15T05:10:57.139Z,93.13
2018-03-15T05:11:57.057Z,93.13
2018-03-15T05:12:56.970Z,92.85
2018-03-15T05:13:56.884Z,92.38
2018-03-15T05:14:56.803Z,92.29
2018-03-15T05:15:56.711Z,92.29
2018-03-15T05:16:56.622Z,92.29
2018-03-15T05:17:56.539Z,92.38
2018-03-15T05:18:56.452Z,92.47
2018-03-15T05:19:56.366Z,92.94
2018-03-15T05:20:56.284Z,92.66
2018-03-15T05:21:56.196Z,92.57
2018-03-15T05:22:56.110Z,92.66
2018-03-15T05:23:56.023Z,93.09
2018-03-15T05:24:55.938Z,93.42
2018-03-15T05:25:55.850Z,93.51
2018-03-15T05:26:55.770Z,93.28
2018-03-15T05:27:55.681Z,93.37
2018-03-15T05:28:55.593Z,93.37
2018-03-15T05:29:55.509Z,93.09
2018-03-15T05:30:55.422Z,93.85
2018-03-15T05:31:55.339Z,93.66
2018-03-15T05:32:55.250Z,93.47
2018-03-15T05:33:55.165Z,93.85
2018-03-15T05:34:55.090Z,93.37
2018-03-15T05:35:54.993Z,93.94
2018-03-15T05:36:54.907Z,94.08
2018-03-15T05:37:54.819Z,94.13
2018-03-15T05:38:54.733Z,93.47
2018-03-15T05:39:54.648Z,93.32
2018-03-15T05:40:54.567Z,93.37
2018-03-15T05:41:54.477Z,93.47
2018-03-15T05:42:54.390Z,93.51
2018-03-15T05:43:54.307Z,93.32
2018-03-15T05:44:54.269Z,92.85
2018-03-15T05:45:54.133Z,92.66
2018-03-15T05:46:54.047Z,92.57
2018-03-15T05:47:53.963Z,92.57
2018-03-15T05:48:53.874Z,92.47
2018-03-15T05:49:53.788Z,93.09
2018-03-15T05:50:53.703Z,93.37
2018-03-15T05:51:53.617Z,93.56
2018-03-15T05:52:53.530Z,93.42
2018-03-15T05:53:53.444Z,93.09
2018-03-15T05:54:53.376Z,94.04
2018-03-15T05:55:53.304Z,93.51
2018-03-15T05:56:53.186Z,93.51
2018-03-15T05:57:53.152Z,93.42
2018-03-15T05:58:53.015Z,92.57
2018-03-15T05:59:52.929Z,92.76
2018-03-15T06:00:52.842Z,93.42
2018-03-15T06:01:52.758Z,93.32
2018-03-15T06:02:52.685Z,93.32
2018-03-15T06:03:52.584Z,93.61
2018-03-15T06:04:52.500Z,93.32
2018-03-15T06:05:52.414Z,92.94
2018-03-15T06:06:52.327Z,92.94
2018-03-15T06:07:52.244Z,93.42
2018-03-15T06:08:52.164Z,93.13
2018-03-15T06:09:52.069Z,93.23
2018-03-15T06:10:51.985Z,93.42
2018-03-15T06:11:51.899Z,93.13
2018-03-15T06:12:51.812Z,92.85
2018-03-15T06:13:51.726Z,92.94
2018-03-15T06:14:51.644Z,92.94
2018-03-15T06:15:51.554Z,92.66
2018-03-15T06:16:51.469Z,92.76
2018-03-15T06:17:51.382Z,93.04
2018-03-15T06:18:51.296Z,92.10
2018-03-15T06:19:51.312Z,92.19
2018-03-15T06:20:51.127Z,92.85
2018-03-15T06:21:51.051Z,92.00
2018-03-15T06:22:50.958Z,92.76
2018-03-15T06:23:50.869Z,92.94
2018-03-15T06:24:50.786Z,92.19
2018-03-15T06:25:50.696Z,92.47
2018-03-15T06:26:50.613Z,92.57
2018-03-15T06:27:50.531Z,92.19
2018-03-15T06:28:50.468Z,92.38
2018-03-15T06:29:50.356Z,92.29
2018-03-15T06:30:50.270Z,92.29
2018-03-15T06:31:50.189Z,91.91
2018-03-15T06:32:50.104Z,92.19
2018-03-15T06:33:50.014Z,92.00
2018-03-15T06:34:49.928Z,92.47
2018-03-15T06:35:49.844Z,92.52
2018-03-15T06:36:49.760Z,92.43
2018-03-15T06:37:49.671Z,91.86
2018-03-15T06:38:49.588Z,92.05
2018-03-15T06:39:49.506Z,92.05
2018-03-15T06:40:49.465Z,91.95
2018-03-15T06:41:49.385Z,92.05
2018-03-15T06:42:49.245Z,92.05
2018-03-15T06:43:49.160Z,92.24
2018-03-15T06:44:49.083Z,92.33
2018-03-15T06:45:49.009Z,92.61
2018-03-15T06:46:48.905Z,91.38
2018-03-15T06:47:48.826Z,91.57
2018-03-15T06:48:48.740Z,91.95
2018-03-15T06:49:48.655Z,91.67
2018-03-15T06:50:48.563Z,91.29
2018-03-15T06:51:48.486Z,91.10
2018-03-15T06:52:48.392Z,91.29
2018-03-15T06:53:48.313Z,91.95
2018-03-15T06:54:48.230Z,91.29
2018-03-15T06:55:48.139Z,90.72
2018-03-15T06:56:48.052Z,90.72
2018-03-15T06:57:47.968Z,90.34
2018-03-15T06:58:47.884Z,90.06
2018-03-15T06:59:47.803Z,90.34
2018-03-15T07:00:47.714Z,90.25
2018-03-15T07:01:47.632Z,90.44
2018-03-15T07:02:47.544Z,89.77
2018-03-15T07:03:47.496Z,90.15
2018-03-15T07:04:47.378Z,90.15
2018-03-15T07:05:47.289Z,89.96
2018-03-15T07:06:47.205Z,89.96
2018-03-15T07:07:47.122Z,90.01
2018-03-15T07:08:47.036Z,89.77
2018-03-15T07:09:46.952Z,89.96
2018-03-15T07:10:46.869Z,90.39
2018-03-15T07:11:46.782Z,90.01
2018-03-15T07:12:46.696Z,90.01
2018-03-15T07:13:46.612Z,90.48
2018-03-15T07:14:46.527Z,89.91
2018-03-15T07:15:46.445Z,90.20
2018-03-15T07:16:46.357Z,90.10
2018-03-15T07:17:46.274Z,89.91
2018-03-15T07:18:46.190Z,90.01
2018-03-15T07:19:46.115Z,90.10
2018-03-15T07:20:46.021Z,90.20
2018-03-15T07:21:45.936Z,90.20
2018-03-15T07:22:45.900Z,89.63
2018-03-15T07:23:45.769Z,89.63
2018-03-15T07:24:45.682Z,89.63
2018-03-15T07:25:45.598Z,89.44
2018-03-15T07:26:45.516Z,89.53
2018-03-15T07:27:45.429Z,89.34
2018-03-15T07:28:45.346Z,89.91
2018-03-15T07:29:45.265Z,89.53
2018-03-15T07:30:45.177Z,89.72
2018-03-15T07:31:45.093Z,89.53
2018-03-15T07:32:45.007Z,89.53
2018-03-15T07:33:44.925Z,89.91
2018-03-15T07:34:44.887Z,89.63
2018-03-15T07:35:44.754Z,89.15
2018-03-15T07:36:44.673Z,89.06
2018-03-15T07:37:44.585Z,89.15
2018-03-15T07:38:44.502Z,88.96
2018-03-15T07:39:44.417Z,89.25
2018-03-15T07:40:44.333Z,88.96
2018-03-15T07:41:44.249Z,88.63
2018-03-15T07:42:44.166Z,88.78
2018-03-15T07:43:44.085Z,88.73
2018-03-15T07:44:43.997Z,88.54
2018-03-15T07:45:43.917Z,88.87
2018-03-15T07:46:43.828Z,89.77
2018-03-15T07:47:43.745Z,89.86
2018-03-15T07:48:43.660Z,89.48
2018-03-15T07:49:43.577Z,88.82
2018-03-15T07:50:43.526Z,88.44
2018-03-15T07:51:43.411Z,89.20
2018-03-15T07:52:43.338Z,89.86
2018-03-15T07:53:43.249Z,89.01
2018-03-15T07:54:43.163Z,88.63
2018-03-15T07:55:43.078Z,88.44
2018-03-15T07:56:42.987Z,87.59
2018-03-15T07:57:42.906Z,87.21
2018-03-15T07:58:42.822Z,86.93
2018-03-15T07:59:42.741Z,86.55
2018-03-15T08:02:25.229Z,86.55
2018-03-15T08:03:25.096Z,86.64
2018-03-15T08:04:25.012Z,86.83
2018-03-15T08:05:24.931Z,86.93
2018-03-15T08:06:24.843Z,86.16
2018-03-15T08:07:24.787Z,86.07
2018-03-15T08:08:24.677Z,85.88
2018-03-15T08:09:24.600Z,86.16
2018-03-15T08:10:24.511Z,85.88
2018-03-15T08:11:24.426Z,85.88
2018-03-15T08:12:24.349Z,86.16
2018-03-15T08:13:24.271Z,86.07
2018-03-15T08:14:24.174Z,86.97
2018-03-15T08:15:24.091Z,86.97
2018-03-15T08:16:24.008Z,86.40
2018-03-15T08:17:23.926Z,86.02
2018-03-15T08:18:23.841Z,86.02
2018-03-15T08:19:23.766Z,85.83
2018-03-15T08:20:23.678Z,85.64
2018-03-15T08:21:23.601Z,85.36
2018-03-15T08:22:23.627Z,85.26
2018-03-15T08:23:23.424Z,85.64
2018-03-15T08:24:23.341Z,85.17
2018-03-15T08:25:23.263Z,84.41
2018-03-15T08:26:23.176Z,84.03
2018-03-15T08:27:23.091Z,83.94
2018-03-15T08:28:23.008Z,83.65
2018-03-15T08:29:22.927Z,83.12
2018-03-15T08:30:22.843Z,83.22
2018-03-15T08:31:22.760Z,83.40
2018-03-15T08:32:22.679Z,83.50
2018-03-15T08:33:22.604Z,82.74
2018-03-15T08:34:22.508Z,82.93
2018-03-15T08:35:22.426Z,82.08
2018-03-15T08:36:22.346Z,82.36
2018-03-15T08:37:22.262Z,81.98
2018-03-15T08:38:22.178Z,81.88
2018-03-15T08:39:22.097Z,82.74
2018-03-15T08:40:22.017Z,82.65
2018-03-15T08:41:21.929Z,81.60
2018-03-15T08:42:21.847Z,81.79
2018-03-15T08:43:21.794Z,80.75
2018-03-15T08:44:21.683Z,79.99
2018-03-15T08:45:21.599Z,79.80
2018-03-15T08:46:21.514Z,78.99
2018-03-15T08:47:21.432Z,79.61
2018-03-15T08:48:21.349Z,79.27
2018-03-15T08:49:21.272Z,79.36
2018-03-15T08:50:21.185Z,79.65
2018-03-15T08:51:21.100Z,79.74
2018-03-15T08:52:21.068Z,79.08
2018-03-15T08:53:20.939Z,79.65
2018-03-15T08:54:20.853Z,78.80
2018-03-15T08:55:20.771Z,78.89
2018-03-15T08:56:20.689Z,78.51
2018-03-15T08:57:20.649Z,78.42
2018-03-15T08:58:20.523Z,78.70
2018-03-15T08:59:20.440Z,78.80
2018-03-15T09:00:20.358Z,78.51
2018-03-15T09:01:20.277Z,78.80
2018-03-15T09:02:20.192Z,78.89
2018-03-15T09:03:20.112Z,78.99
2018-03-15T09:04:20.061Z,79.27
2018-03-15T09:05:19.945Z,78.80
2018-03-15T09:06:19.866Z,79.46
2018-03-15T09:07:19.781Z,78.83
2018-03-15T09:08:19.700Z,78.13
2018-03-15T09:09:19.664Z,78.17
2018-03-15T09:10:19.534Z,78.64
2018-03-15T09:11:19.453Z,78.55
2018-03-15T09:12:19.372Z,78.55
2018-03-15T09:13:19.297Z,78.45
2018-03-15T09:14:19.204Z,78.74
2018-03-15T09:15:19.123Z,78.83
2018-03-15T09:16:19.041Z,77.79
2018-03-15T09:17:18.962Z,77.79
2018-03-15T09:18:18.886Z,77.41
2018-03-15T09:19:18.795Z,78.17
2018-03-15T09:20:18.714Z,78.64
2018-03-15T09:21:18.633Z,78.36
2018-03-15T09:22:18.549Z,77.51
2018-03-15T09:23:18.467Z,77.31
2018-03-15T09:24:18.387Z,77.17
2018-03-15T09:25:18.309Z,77.36
2018-03-15T09:26:18.221Z,76.56
2018-03-15T09:27:18.141Z,77.41
2018-03-15T09:28:18.057Z,76.50
2018-03-15T09:29:17.976Z,76.50
2018-03-15T09:30:17.897Z,75.64
2018-03-15T09:31:17.812Z,75.36
2018-03-15T09:32:17.732Z,77.17
2018-03-15T09:33:17.670Z,77.17
2018-03-15T09:34:17.568Z,77.45
2018-03-15T09:35:17.487Z,77.07
2018-03-15T09:36:17.406Z,77.45
2018-03-15T09:37:17.329Z,76.69
2018-03-15T09:38:17.242Z,77.07
2018-03-15T09:39:17.163Z,76.03
2018-03-15T09:40:17.080Z,75.84
2018-03-15T09:41:17.001Z,76.12
2018-03-15T09:42:16.917Z,77.01
2018-03-15T09:43:16.834Z,76.82
2018-03-15T09:44:16.758Z,75.11
2018-03-15T09:45:16.684Z,74.16
2018-03-15T09:46:16.608Z,74.73
2018-03-15T09:47:16.512Z,74.35
2018-03-15T09:48:16.433Z,74.16
2018-03-15T09:49:16.353Z,74.63
2018-03-15T09:50:16.276Z,73.30
2018-03-15T09:51:16.223Z,72.64
2018-03-15T09:52:16.108Z,73.30
2018-03-15T09:53:16.028Z,73.69
2018-03-15T09:54:16.125Z,72.92
2018-03-15T09:55:15.922Z,72.55
2018-03-15T09:56:15.788Z,72.55
2018-03-15T09:57:15.706Z,72.39
2018-03-15T09:58:15.649Z,72.58
2018-03-15T09:59:15.553Z,72.58
2018-03-15T10:00:15.467Z,72.11
2018-03-15T10:01:15.385Z,72.20
2018-03-15T10:02:15.309Z,72.86
2018-03-15T10:03:15.230Z,74.10
2018-03-15T10:04:15.141Z,74.58
2018-03-15T10:05:15.064Z,73.82
2018-03-15T10:06:14.982Z,72.86
2018-03-15T10:07:14.905Z,71.67
2018-03-15T10:08:14.824Z,71.95
2018-03-15T10:09:14.760Z,71.57
2018-03-15T10:10:14.662Z,71.00
2018-03-15T10:11:14.585Z,71.19
2018-03-15T10:12:14.508Z,71.09
2018-03-15T10:13:14.431Z,69.85
2018-03-15T10:14:14.343Z,70.43
2018-03-15T10:15:14.271Z,71.09
2018-03-15T10:16:14.185Z,70.62
2018-03-15T10:17:14.107Z,70.72
2018-03-15T10:18:14.039Z,71.09
2018-03-15T10:19:13.946Z,71.76
2018-03-15T10:20:13.867Z,71.19
2018-03-15T10:21:13.788Z,71.38
2018-03-15T10:22:13.735Z,70.90
2018-03-15T10:23:13.628Z,70.24
2018-03-15T10:24:13.552Z,70.62
2018-03-15T10:25:25.882Z,70.14
2018-03-15T10:26:13.390Z,71.32
2018-03-15T10:27:13.309Z,71.03
2018-03-15T10:28:13.231Z,70.65
2018-03-15T10:29:13.154Z,70.27
2018-03-15T10:30:13.073Z,69.51
2018-03-15T10:31:12.996Z,69.13
2018-03-15T10:32:12.915Z,69.42
2018-03-15T10:33:12.876Z,69.51
2018-03-15T10:34:12.759Z,70.37
2018-03-15T10:35:12.679Z,70.08
2018-03-15T10:36:12.601Z,69.99
2018-03-15T10:37:12.522Z,69.51
2018-03-15T10:38:12.452Z,69.42
2018-03-15T10:39:12.365Z,68.94
2018-03-15T10:40:12.285Z,69.32
2018-03-15T10:41:12.209Z,69.32
2018-03-15T10:42:12.134Z,70.21
2018-03-15T10:43:12.050Z,70.21
2018-03-15T10:44:11.979Z,69.74
2018-03-15T10:45:11.894Z,69.35
2018-03-15T10:46:11.824Z,68.88
2018-03-15T10:47:11.742Z,68.98
2018-03-15T10:48:11.658Z,69.07
2018-03-15T10:49:11.580Z,68.40
2018-03-15T10:50:11.500Z,68.30
2018-03-15T10:51:11.421Z,68.30
2018-03-15T10:52:11.348Z,67.83
2018-03-15T10:53:11.267Z,67.93
2018-03-15T10:54:11.187Z,68.40
2018-03-15T10:55:11.111Z,68.44
2018-03-15T10:56:11.033Z,68.15
2018-03-15T10:57:10.954Z,67.68
2018-03-15T10:58:10.875Z,67.58
2018-03-15T10:59:10.817Z,66.34
2018-03-15T11:00:10.721Z,64.53
2018-03-15T11:01:10.642Z,65.48
2018-03-15T11:02:10.565Z,66.44
2018-03-15T11:03:10.485Z,65.39
2018-03-15T11:04:10.415Z,65.00
2018-03-15T11:05:10.333Z,65.20
2018-03-15T11:06:10.257Z,65.29
2018-03-15T11:07:10.176Z,66.24
2018-03-15T11:08:10.099Z,66.05
2018-03-15T11:09:10.024Z,66.09
2018-03-15T11:10:09.943Z,65.99
2018-03-15T11:11:09.870Z,65.42
2018-03-15T11:12:09.805Z,65.33
2018-03-15T11:13:09.710Z,64.75
2018-03-15T11:14:09.647Z,64.65
2018-03-15T11:15:09.560Z,64.75
2018-03-15T11:16:09.494Z,64.09
2018-03-15T11:17:09.402Z,64.09
2018-03-15T11:18:09.333Z,63.89
2018-03-15T11:19:09.260Z,64.02
2018-03-15T11:20:09.172Z,64.21
2018-03-15T11:21:09.097Z,64.21
2018-03-15T11:22:09.020Z,63.35
2018-03-15T11:23:08.945Z,64.02
2018-03-15T11:24:08.865Z,63.26
2018-03-15T11:25:08.792Z,63.29
2018-03-15T11:26:08.747Z,61.76
2018-03-15T11:27:08.636Z,61.95
2018-03-15T11:28:08.560Z,61.66
2018-03-15T11:29:08.485Z,61.66
2018-03-15T11:30:08.425Z,61.10
2018-03-15T11:31:08.336Z,60.55
2018-03-15T11:32:08.259Z,59.88
2018-03-15T11:33:08.186Z,60.46
2018-03-15T11:34:08.114Z,60.36
2018-03-15T11:35:08.036Z,59.81
2018-03-15T11:36:07.962Z,58.86
2018-03-15T11:37:07.889Z,58.32
2018-03-15T11:38:07.812Z,57.58
2018-03-15T11:39:07.743Z,55.76
2018-03-15T11:40:07.671Z,55.12
2018-03-15T11:41:07.601Z,55.44
2018-03-15T11:42:07.531Z,54.28
2018-03-15T11:43:07.455Z,53.64
2018-03-15T11:44:07.387Z,52.20
2018-03-15T11:45:07.313Z,50.70
2018-03-15T11:46:07.251Z,49.86
2018-03-15T11:47:07.173Z,48.83
2018-03-15T11:48:07.106Z,48.28
2018-03-15T11:49:07.036Z,47.34
2018-03-15T11:50:06.973Z,47.17
2018-03-15T11:51:06.897Z,46.53
2018-03-15T11:52:06.830Z,45.10
2018-03-15T11:53:06.770Z,44.45
2018-03-15T11:54:06.702Z,44.74
2018-03-15T11:55:06.626Z,44.28
2018-03-15T11:56:06.560Z,41.82
2018-03-15T11:57:06.495Z,39.70
2018-03-15T11:58:06.424Z,39.01
2018-03-15T11:59:06.366Z,39.86
2018-03-15T12:00:06.297Z,40.63
2018-03-15T12:01:06.229Z,39.89
2018-03-15T12:02:06.164Z,38.18
2018-03-15T12:03:06.094Z,38.02
2018-03-15T12:04:06.031Z,36.96
2018-03-15T12:05:05.973Z,37.15
2018-03-15T12:06:05.901Z,35.96
2018-03-15T12:07:05.846Z,37.79
2018-03-15T12:08:05.770Z,37.71
2018-03-15T12:09:05.707Z,37.37
2018-03-15T12:10:05.653Z,36.98
2018-03-15T12:11:05.580Z,35.55
2018-03-15T12:12:05.514Z,35.16
2018-03-15T12:13:05.450Z,35.63
2018-03-15T12:14:05.385Z,35.52
2018-03-15T12:15:05.323Z,35.13
2018-03-15T12:16:05.258Z,34.92
2018-03-15T12:17:05.199Z,36.44
2018-03-15T12:18:05.256Z,36.81
2018-03-15T12:19:05.067Z,37.46
2018-03-15T12:20:05.003Z,36.89
2018-03-15T12:21:04.941Z,37.58
2018-03-15T12:22:04.875Z,36.83
2018-03-15T12:23:04.811Z,37.79
2018-03-15T12:24:04.747Z,35.42
2018-03-15T12:25:04.685Z,34.87
2018-03-15T12:26:04.622Z,31.99
2018-03-15T12:27:04.555Z,31.78
2018-03-15T12:28:04.496Z,32.18
2018-03-15T12:29:04.428Z,32.31
2018-03-15T12:30:04.365Z,31.46
2018-03-15T12:31:04.303Z,30.04
2018-03-15T12:32:04.240Z,29.24
2018-03-15T12:33:04.177Z,28.40
2018-03-15T12:34:04.116Z,27.71
2018-03-15T12:35:04.054Z,28.69
2018-03-15T12:36:03.993Z,26.84
2018-03-15T12:37:03.930Z,26.82
2018-03-15T12:38:03.872Z,27.70
2018-03-15T12:39:03.808Z,26.34
2018-03-15T12:40:03.755Z,26.72
2018-03-15T12:41:03.687Z,27.01
2018-03-15T12:42:04.538Z,26.74
2018-03-15T12:43:03.575Z,25.29
2018-03-15T12:44:03.505Z,24.79
2018-03-15T12:45:03.448Z,24.58
2018-03-15T12:46:03.389Z,25.54
2018-03-15T12:47:03.325Z,26.05
2018-03-15T12:48:03.276Z,26.06
2018-03-15T12:49:03.217Z,25.40
2018-03-15T12:50:03.146Z,24.34
2018-03-15T12:51:03.092Z,23.66
2018-03-15T12:52:03.028Z,23.37
2018-03-15T12:53:02.971Z,23.27